Hampden Township, Pennsylvania
Current Conditions -  °F | °C
As of 1:56 PM on Thursday 27 Nov 2014 (Local Time) from KCXY Reporting Station
Overcast Overcast  
Wind Chill: 32°   Ceiling: 3300
Heat Index: 37°   Visibility: 10mi
Dew Point: 27°   Wind: 6mph
Humidity: 67%   Direction: 290°WNW
Pressure: 30.04"   Gusts: NA
Location:  40.2485°N, 77.0142°W
Report Text: KCXY 271856Z 29005KT 10SM FEW027 BKN033 OVC041 03/M03 A3004 RMK AO2 SLP178 T00281028
Loading
Personal Weather Stations






























Interactive Weather Map New forecast layout! Learn more

10-Day Weather Forecast

Advertisements
Track Severe Weather on mobile